Airfield :
LOGIN :

Register | Disclaimer

   EN    FR    IT 

 










Legend :    VFR   Marginal VFR   IFR   Intensive IFR   Very Intensive IFR
Visi :
Ceiling :
>= 8 km
>= 3000ft
5 to 8 km
1000 to 3000 ft
1500m to 5 km
500 to 1000 ft
800 to 1500m
200 to 500 ft
< 800m
< 200 ft
Symbols :   Thunderstorms  Fog  Heavy snow  Heavy precipitations  Wind > 20 kt
SIGMETs :     Misc.  Thunderstorms  Icing  Turbulence  Mountain Waves  Volcanic Ashes






- Airport Elevation : 1249 ft


ETSN - Neuburg AB

CURRENT METAR :
  • 161029Z VRB02KT 4000 VCFG FEW003 BKN300 04/04 Q1011 GRN GRN BECMG BLU+

EXPIRED METARs :
  • 161020Z VRB01KT 1600 R27/9999N VCFG FEW003 BKN300 04/03 Q1011 YLO YLO BECMG BLU+
  • 161008Z VRB01KT 0800 R27/7000U VCFG FEW160 BKN360 03/03 Q1012 AMB AMB BECMG YLO
  • 160920Z VRB02KT 0300 R27/1000D FG FEW160 BKN250 01/01 Q1012 RED RED BECMG YLO
  • 160820Z VRB01KT 0100 R27/0550D FG FEW160 BKN250 00/00 Q1012 RED RED

TAF AMD TAF ETSN
Valid from the 16 at 10:00 until the 16 at 18:00 UTC


161035Z 1610/1618 04005KT 2000 BR BKN300
BECMG 1610/1612 05005KT 9999 NSW BKN320 BY ETGL



MET'MAP, your aeronautical weather chart ! - Copyright ORBIFLY December 2007 - Disclaimer

ORBIFLY MET'MAP TEAM :

Programming & Development : Alexandra Zaïnal
Concept & original design : Baudouin d'Aumeries
Assistance for programming : Marc-Olivier Méhu
Technical & hardware support : Manuel Goepfert

Contact : metmap@orbifly.com




SOURCES & CREDITS :

   NOAA